Welcome to Northern Hawkes Bay. New Zealand.
PWS Header
      nz Flag



Hit Counter


W3C Valid W3C Valid logo


    Wairoa

Select any of the Stations below to visit their websites.










Historic Data from Weather Underground
Select the location of interest below. Wairoa is the default. Please have patience, this Data is slow to load in.
Northern Hawkes Bay Historical Data
Daily Summary for April 13, 2017 Units:  English    Metric   Both
« Previous Day
Next Day »
Daily Weekly Monthly Yearly Custom
  High: Low: Average:
Temperature: 69.8 °F 61.9 °F 64.9 °F
Dew Point: 65.3 °F 55.9 °F 62.4 °F
Humidity: 99% 65% 92%
Wind Speed: 25.9mph 0mph 4.9mph
Wind Gust: 46.3mph - -
Wind- - East
Pressure: 29.9 in 29.3 in -
Precipitation: 0.78 in    
Historical Graphs
 
 
Tabular Data for April 13, 2017
Time Temperature Dew Point Pressure Wind Wind Speed Wind Gust Humidity Rainfall Rate (Hourly) solar
00:03 62.8 °F 61.9 °F 29.9 in Calm     97% 0.01 in 0 W/m2
00:09 62.8 °F 61.9 °F 29.9 in Calm     97% 0.01 in 0 W/m2
00:15 62.8 °F 61.9 °F 29.9 in Calm     97% 0 in 0 W/m2
00:21 62.8 °F 61.9 °F 29.9 in Calm     97% 0 in 0 W/m2
00:27 62.8 °F 61.9 °F 29.9 in Calm     97% 0 in 0 W/m2
00:33 63 °F 62.1 °F 29.9 in Calm     97% 0.01 in 0 W/m2
00:39 63 °F 62.1 °F 29.9 in Calm     97% 0.01 in 0 W/m2
00:45 63 °F 62.1 °F 29.9 in Calm     97% 0.01 in 0 W/m2
00:57 63 °F 62.1 °F 29.9 in Calm   3.8 mph 97% 0.01 in 0 W/m2
01:03 63 °F 62.1 °F 29.9 in Calm     97% 0.01 in 0 W/m2
01:09 63 °F 62.1 °F 29.9 in Calm     97% 0.01 in 0 W/m2
01:15 63 °F 62.1 °F 29.9 in Calm   3.1 mph 97% 0.01 in 0 W/m2
01:21 63 °F 62.1 °F 29.9 in Calm     97% 0.01 in 0 W/m2
01:27 62.8 °F 61.9 °F 29.9 in Calm     97% 0.01 in 0 W/m2
01:33 62.8 °F 61.9 °F 29.9 in Calm     97% 0 in 0 W/m2
01:39 62.8 °F 61.9 °F 29.9 in Calm     97% 0 in 0 W/m2
01:45 62.8 °F 61.9 °F 29.9 in Calm   3.1 mph 97% 0 in 0 W/m2
01:51 62.8 °F 61.9 °F 29.9 in ENE 3.1 mph 4.5 mph 97% 0 in 0 W/m2
01:57 62.8 °F 61.9 °F 29.9 in Calm   4.5 mph 97% 0 in 0 W/m2
02:03 62.8 °F 61.9 °F 29.9 in Calm   3.8 mph 97% 0 in 0 W/m2
02:09 62.8 °F 61.9 °F 29.9 in Calm   3.8 mph 97% 0 in 0 W/m2
02:15 62.8 °F 61.9 °F 29.9 in Calm   1.6 mph 97% 0 in 0 W/m2
02:21 62.6 °F 61.9 °F 29.9 in Calm   1.6 mph 97% 0 in 0 W/m2
02:27 62.6 °F 61.9 °F 29.9 in Calm     97% 0 in 0 W/m2
02:33 62.4 °F 61.9 °F 29.9 in Calm     98% 0 in 0 W/m2
02:39 62.4 °F 61.9 °F 29.9 in Calm     98% 0 in 0 W/m2
02:45 62.2 °F 61.7 °F 29.9 in Calm     98% 0 in 0 W/m2
02:51 62.2 °F 61.7 °F 29.9 in Calm     98% 0 in 0 W/m2
02:57 62.1 °F 61.5 °F 29.9 in Calm     98% 0 in 0 W/m2
03:03 62.1 °F 61.5 °F 29.9 in Calm     98% 0 in 0 W/m2
03:09 62.1 °F 61.5 °F 29.9 in Calm     98% 0 in 0 W/m2
03:15 62.1 °F 61.5 °F 29.9 in Calm     98% 0 in 0 W/m2
03:21 62.1 °F 61.5 °F 29.9 in Calm     98% 0 in 0 W/m2
03:27 62.1 °F 61.5 °F 29.9 in Calm     98% 0 in 0 W/m2
03:33 62.1 °F 61.5 °F 29.9 in Calm     98% 0 in 0 W/m2
03:39 62.1 °F 61.5 °F 29.9 in Calm     98% 0 in 0 W/m2
03:45 61.9 °F 61.3 °F 29.9 in Calm     98% 0 in 0 W/m2
03:51 61.9 °F 61.3 °F 29.9 in Calm     98% 0 in 0 W/m2
03:57 61.9 °F 61.3 °F 29.9 in Calm     98% 0 in 0 W/m2
04:03 61.9 °F 61.3 °F 29.9 in Calm     98% 0 in 0 W/m2
04:09 61.9 °F 61.3 °F 29.9 in Calm     98% 0 in 0 W/m2
04:15 61.9 °F 61.3 °F 29.9 in Calm     98% 0 in 0 W/m2
04:21 61.9 °F 61.3 °F 29.9 in Calm     98% 0 in 0 W/m2
04:27 62.1 °F 61.5 °F 29.9 in Calm     98% 0 in 0 W/m2
04:33 62.2 °F 61.7 °F 29.9 in Calm     98% 0 in 0 W/m2
04:39 62.4 °F 61.9 °F 29.9 in Calm     98% 0 in 0 W/m2
04:45 62.6 °F 61.9 °F 29.9 in Calm     97% 0 in 0 W/m2
04:51 62.6 °F 61.9 °F 29.9 in Calm     97% 0 in 0 W/m2
04:57 63 °F 62.1 °F 29.9 in Calm     97% 0 in 0 W/m2
05:03 63 °F 62.1 °F 29.9 in Calm     97% 0 in 0 W/m2
05:09 63 °F 62.1 °F 29.9 in Calm     97% 0 in 0 W/m2
05:15 62.8 °F 61.9 °F 29.9 in Calm     97% 0 in 0 W/m2
05:21 62.6 °F 61.9 °F 29.9 in Calm     97% 0 in 0 W/m2
05:27 62.8 °F 61.9 °F 29.9 in Calm     97% 0 in 0 W/m2
05:33 62.8 °F 61.9 °F 29.9 in Calm     97% 0 in 0 W/m2
05:39 62.8 °F 61.9 °F 29.9 in Calm     97% 0 in 0 W/m2
05:45 62.8 °F 61.9 °F 29.9 in Calm     97% 0 in 0 W/m2
05:51 62.6 °F 61.9 °F 29.8 in Calm     97% 0 in 0 W/m2
05:57 62.6 °F 61.9 °F 29.9 in Calm     97% 0 in 0 W/m2
06:03 62.8 °F 61.9 °F 29.8 in Calm   2.2 mph 97% 0 in 0 W/m2
06:09 63 °F 62.1 °F 29.8 in East 2.2 mph 4.5 mph 97% 0 in 0 W/m2
06:15 63.5 °F 62.8 °F 29.8 in Calm   4.5 mph 97% 0 in 0 W/m2
06:21 63.5 °F 62.8 °F 29.8 in Calm   4.5 mph 97% 0 in 0 W/m2
06:27 63.5 °F 62.8 °F 29.8 in Calm   3.8 mph 97% 0 in 0 W/m2
06:33 63.1 °F 62.2 °F 29.8 in Calm   2.2 mph 97% 0 in 0 W/m2
06:39 63 °F 62.1 °F 29.8 in Calm   2.2 mph 97% 0 in 0 W/m2
06:45 63 °F 62.1 °F 29.8 in Calm     97% 0 in 1 W/m2
06:51 62.8 °F 61.9 °F 29.8 in Calm     97% 0 in 3 W/m2
06:57 62.8 °F 61.9 °F 29.8 in Calm     97% 0 in 4 W/m2
07:09 62.6 °F 61.9 °F 29.8 in Calm     97% 0 in 13 W/m2
07:15 62.8 °F 61.9 °F 29.8 in Calm     97% 0 in 16 W/m2
07:21 62.8 °F 61.9 °F 29.8 in Calm   4.5 mph 97% 0 in 22 W/m2
07:27 62.8 °F 61.9 °F 29.9 in Calm   4.5 mph 97% 0 in 27 W/m2
07:33 63 °F 62.1 °F 29.9 in Calm     97% 0 in 23 W/m2
07:39 63 °F 62.1 °F 29.9 in Calm     97% 0 in 22 W/m2
07:45 63 °F 62.1 °F 29.9 in Calm     97% 0 in 22 W/m2
07:51 63 °F 62.1 °F 29.9 in Calm   1.6 mph 97% 0 in 32 W/m2
07:57 63.1 °F 62.2 °F 29.9 in Calm   2.2 mph 97% 0 in 38 W/m2
08:03 63.3 °F 62.4 °F 29.9 in Calm   2.2 mph 97% 0 in 45 W/m2
08:09 63.5 °F 62.8 °F 29.9 in Calm     97% 0 in 46 W/m2
08:15 63.7 °F 62.8 °F 29.8 in Calm     97% 0 in 48 W/m2
08:21 63.7 °F 62.8 °F 29.8 in Calm     97% 0 in 50 W/m2
08:27 63.7 °F 62.8 °F 29.8 in Calm     97% 0 in 46 W/m2
08:33 63.7 °F 62.8 °F 29.9 in Calm     97% 0 in 25 W/m2
08:39 63.9 °F 63 °F 29.9 in Calm     97% 0 in 38 W/m2
08:45 63.9 °F 63 °F 29.9 in Calm     97% 0 in 39 W/m2
08:51 64 °F 63.1 °F 29.8 in Calm     97% 0 in 51 W/m2
08:57 64.2 °F 63.3 °F 29.9 in Calm     97% 0 in 54 W/m2
09:03 64.6 °F 64.2 °F 29.8 in Calm     99% 0 in 61 W/m2
09:09 64.6 °F 64.2 °F 29.8 in Calm     99% 0 in 71 W/m2
09:15 64.8 °F 64.6 °F 29.8 in Calm     99% 0 in 71 W/m2
09:37 65.3 °F 64.9 °F 29.8 in Calm   0.7 mph 99% 0.01 in 83 W/m2
09:43 65.1 °F 64.9 °F 29.9 in Calm   0.7 mph 99% 0.01 in 74 W/m2
09:49 65.3 °F 64.9 °F 29.8 in Calm     99% 0.01 in 68 W/m2
09:55 65.3 °F 64.9 °F 29.9 in Calm     99% 0.01 in 74 W/m2
10:01 65.3 °F 64.9 °F 29.9 in Calm     99% 0.01 in 80 W/m2
10:07 65.3 °F 64.9 °F 29.9 in Calm     99% 0.02 in 81 W/m2
10:13 65.3 °F 64.9 °F 29.8 in Calm     99% 0.02 in 77 W/m2
10:19 65.3 °F 64.9 °F 29.9 in Calm     99% 0.02 in 64 W/m2
10:25 65.3 °F 64.9 °F 29.9 in Calm     99% 0.02 in 60 W/m2
10:31 65.1 °F 64.9 °F 29.9 in Calm     99% 0.02 in 61 W/m2
10:37 64.9 °F 64.8 °F 29.9 in Calm     99% 0.04 in 49 W/m2
10:43 64.8 °F 64.6 °F 29.9 in Calm     99% 0.06 in 35 W/m2
10:49 64.8 °F 64.6 °F 29.9 in Calm     99% 0.09 in 39 W/m2
10:55 64.6 °F 64.2 °F 29.9 in Calm     99% 0.12 in 39 W/m2
11:01 64.6 °F 64.2 °F 29.8 in Calm   0.7 mph 99% 0.14 in 47 W/m2
11:06 64.2 °F 63.3 °F 29.8 in NNE 3.1 mph 4.5 mph 97% 0.15 in 64 W/m2
11:11 63 °F 62.1 °F 29.8 in NE 8.3 mph 9.8 mph 97% 0.18 in 66 W/m2
11:16 62.6 °F 61.9 °F 29.8 in Calm   9.8 mph 97% 0.17 in 102 W/m2
11:21 62.6 °F 61.9 °F 29.8 in Calm   9.8 mph 97% 0.17 in 114 W/m2
11:26 63 °F 62.1 °F 29.8 in Calm   2.2 mph 97% 0.17 in 137 W/m2
11:31 63.1 °F 62.2 °F 29.8 in Calm   0.7 mph 97% 0.12 in 137 W/m2
11:36 63.5 °F 62.8 °F 29.8 in Calm     97% 0.13 in 128 W/m2
11:46 64 °F 63.1 °F 29.8 in Calm     97% 0.06 in 111 W/m2
11:51 64.2 °F 63.3 °F 29.8 in Calm   1.6 mph 97% 0.06 in 111 W/m2
11:56 64 °F 63.1 °F 29.8 in Calm   1.6 mph 97% 0.06 in 108 W/m2
12:01 64.2 °F 63.3 °F 29.8 in Calm   0.7 mph 97% 0.05 in 101 W/m2
12:06 64.6 °F 64 °F 29.8 in Calm   1.6 mph 98% 0.04 in 89 W/m2
12:11 64.8 °F 64.2 °F 29.8 in Calm   1.6 mph 98% 0.01 in 96 W/m2
12:16 65.1 °F 64.6 °F 29.8 in Calm     98% 0.01 in 89 W/m2
12:21 65.1 °F 64.6 °F 29.8 in Calm     98% 0.01 in 86 W/m2
12:26 65.1 °F 64.6 °F 29.8 in Calm     98% 0.01 in 91 W/m2
12:31 64.9 °F 64.4 °F 29.8 in Calm     98% 0.01 in 66 W/m2
12:36 64.8 °F 64.2 °F 29.8 in Calm     98% 0.01 in 66 W/m2
12:41 64.8 °F 64.2 °F 29.8 in Calm     98% 0.01 in 68 W/m2
12:46 64.8 °F 64.2 °F 29.8 in Calm     98% 0.01 in 60 W/m2
12:51 64.8 °F 64.6 °F 29.8 in Calm     99% 0.01 in 58 W/m2
12:56 64.9 °F 64.8 °F 29.8 in Calm     99% 0.02 in 61 W/m2
13:01 64.8 °F 64.6 °F 29.8 in Calm     99% 0.02 in 67 W/m2
13:06 64.6 °F 64.2 °F 29.8 in Calm   2.2 mph 99% 0.04 in 66 W/m2
13:11 64.6 °F 64.2 °F 29.8 in Calm   2.2 mph 99% 0.05 in 60 W/m2
13:16 64.4 °F 64 °F 29.8 in SW 2.2 mph 3.1 mph 99% 0.05 in 65 W/m2
13:21 64.4 °F 64 °F 29.8 in SW 0.7 mph 3.1 mph 99% 0.05 in 58 W/m2
13:31 64.4 °F 64 °F 29.8 in Calm   1.6 mph 99% 0.06 in 63 W/m2
13:36 64.4 °F 64 °F 29.8 in Calm     99% 0.05 in 61 W/m2
13:46 64.2 °F 63.3 °F 29.7 in ESE 5.4 mph 11.4 mph 97% 0.06 in 46 W/m2
13:51 64.2 °F 63.3 °F 29.7 in East 4.5 mph 11.4 mph 97% 0.06 in 53 W/m2
13:56 64.2 °F 63.3 °F 29.7 in East 3.8 mph 9.8 mph 97% 0.05 in 52 W/m2
14:01 64.2 °F 63.3 °F 29.7 in ESE 4.5 mph 9.8 mph 97% 0.05 in 58 W/m2
14:06 64.2 °F 63.3 °F 29.7 in SE 1.6 mph 9.8 mph 97% 0.05 in 33 W/m2
14:11 64 °F 63.1 °F 29.7 in ESE 7.6 mph 9.8 mph 97% 0.04 in 18 W/m2
14:16 64 °F 63.1 °F 29.7 in ESE 6.9 mph 9.8 mph 97% 0.05 in 30 W/m2
14:21 63.9 °F 63 °F 29.7 in ESE 6 mph 9.8 mph 97% 0.06 in 42 W/m2
14:26 63.3 °F 62.4 °F 29.7 in ESE 6.9 mph 11.4 mph 97% 0.07 in 48 W/m2
14:31 63.1 °F 62.2 °F 29.7 in ESE 1.6 mph 11.4 mph 97% 0.06 in 47 W/m2
14:36 63 °F 62.1 °F 29.7 in East 2.2 mph 10.7 mph 97% 0.07 in 63 W/m2
14:41 63 °F 62.1 °F 29.7 in ESE 5.4 mph 9.2 mph 97% 0.06 in 70 W/m2
14:46 63 °F 62.1 °F 29.7 in SE 0.7 mph 9.2 mph 97% 0.06 in 83 W/m2
14:51 63.1 °F 62.2 °F 29.7 in Calm   9.2 mph 97% 0.06 in 84 W/m2
14:56 63 °F 62.1 °F 29.7 in SE 1.6 mph 9.2 mph 97% 0.06 in 76 W/m2
15:01 62.8 °F 61.9 °F 29.7 in Calm   8.3 mph 97% 0.06 in 54 W/m2
15:06 63 °F 62.1 °F 29.7 in SE 2.2 mph 8.3 mph 97% 0.05 in 48 W/m2
15:11 63.1 °F 62.2 °F 29.7 in Calm   8.3 mph 97% 0.06 in 46 W/m2
15:16 63.1 °F 62.2 °F 29.7 in SE 1.6 mph 8.3 mph 97% 0.05 in 43 W/m2
15:21 63.5 °F 62.8 °F 29.7 in Calm   3.8 mph 97% 0.04 in 75 W/m2
15:26 63.9 °F 63 °F 29.7 in Calm   3.8 mph 97% 0.02 in 56 W/m2
15:31 64 °F 63.1 °F 29.7 in Calm   2.2 mph 97% 0.02 in 36 W/m2
15:36 64.2 °F 63.3 °F 29.7 in Calm   0.7 mph 97% 0.01 in 43 W/m2
15:41 64.2 °F 63.3 °F 29.7 in Calm   0.7 mph 97% 0.01 in 47 W/m2
15:46 64.2 °F 63.3 °F 29.6 in Calm     97% 0.01 in 40 W/m2
15:51 64.4 °F 64 °F 29.6 in Calm     99% 0.01 in 29 W/m2
15:56 64.4 °F 64 °F 29.6 in Calm     99% 0.01 in 35 W/m2
16:01 64.4 °F 64 °F 29.6 in Calm   3.8 mph 99% 0.01 in 44 W/m2
16:06 64.4 °F 64 °F 29.6 in Calm   4.5 mph 99% 0.01 in 36 W/m2
16:11 64.8 °F 64.2 °F 29.6 in ESE 8.3 mph 17.4 mph 98% 0 in 52 W/m2
16:16 66.2 °F 64 °F 29.6 in East 12.1 mph 19 mph 93% 0.01 in 34 W/m2
16:21 66.6 °F 63 °F 29.6 in East 7.6 mph 19 mph 88% 0.01 in 33 W/m2
16:26 66.9 °F 62.6 °F 29.6 in East 1.6 mph 16.8 mph 86% 0.01 in 28 W/m2
16:31 67.1 °F 62.4 °F 29.6 in ESE 7.6 mph 14.5 mph 85% 0.01 in 25 W/m2
16:36 67.6 °F 62.8 °F 29.6 in East 7.6 mph 14.5 mph 84% 0.02 in 19 W/m2
16:41 67.5 °F 62.1 °F 29.6 in East 4.5 mph 14.5 mph 83% 0.02 in 13 W/m2
16:46 67.1 °F 62.1 °F 29.6 in East 5.4 mph 13.6 mph 84% 0.04 in 11 W/m2
16:51 66.4 °F 62.4 °F 29.6 in East 5.4 mph 15.9 mph 87% 0.05 in 17 W/m2
16:56 66.2 °F 63 °F 29.6 in ESE 12.1 mph 19 mph 89% 0.06 in 12 W/m2
17:01 66 °F 64 °F 29.6 in ESE 9.2 mph 19 mph 93% 0.07 in 7 W/m2
17:06 66 °F 64.2 °F 29.6 in East 14.5 mph 19.7 mph 94% 0.07 in 6 W/m2
17:11 65.8 °F 64.4 °F 29.6 in East 13 mph 26.6 mph 95% 0.08 in 6 W/m2
17:16 65.7 °F 64.2 °F 29.6 in ESE 10.7 mph 26.6 mph 95% 0.07 in 4 W/m2
17:21 65.7 °F 64.2 °F 29.6 in East 9.8 mph 26.6 mph 95% 0.08 in 4 W/m2
17:26 65.7 °F 64.2 °F 29.5 in East 7.6 mph 15.9 mph 95% 0.08 in 3 W/m2
17:31 65.7 °F 64.6 °F 29.5 in ESE 15.2 mph 18.3 mph 96% 0.08 in 0 W/m2
17:36 65.7 °F 64.6 °F 29.5 in ESE 8.3 mph 18.3 mph 96% 0.07 in 0 W/m2
17:41 65.8 °F 64.8 °F 29.5 in ESE 9.2 mph 22.8 mph 96% 0.08 in 0 W/m2
17:46 66 °F 64.6 °F 29.5 in East 6.9 mph 22.8 mph 95% 0.08 in 0 W/m2
17:51 65.8 °F 63.5 °F 29.5 in East 9.2 mph 18.3 mph 92% 0.08 in 0 W/m2
17:56 66 °F 63.3 °F 29.5 in ESE 4.5 mph 22.1 mph 91% 0.07 in 0 W/m2
18:01 65.8 °F 63.5 °F 29.5 in ESE 9.2 mph 22.1 mph 92% 0.07 in 0 W/m2
18:06 65.8 °F 63.9 °F 29.5 in ESE 9.8 mph 32.7 mph 93% 0.08 in 0 W/m2
18:11 65.8 °F 64.4 °F 29.5 in ESE 12.1 mph 32.7 mph 95% 0.09 in 0 W/m2
18:16 66 °F 64.6 °F 29.5 in East 25.9 mph 32 mph 95% 0.12 in 0 W/m2
18:21 66.2 °F 64.4 °F 29.4 in East 16.8 mph 32 mph 94% 0.13 in 0 W/m2
18:26 66 °F 64.6 °F 29.4 in ESE 12.1 mph 32 mph 95% 0.14 in 0 W/m2
18:31 66 °F 64.9 °F 29.4 in ESE 25.9 mph 46.3 mph 96% 0.19 in 0 W/m2
18:36 66 °F 64.9 °F 29.4 in East 18.3 mph 46.3 mph 96% 0.2 in 0 W/m2
18:41 65.8 °F 64.8 °F 29.4 in East 15.9 mph 46.3 mph 96% 0.2 in 0 W/m2
18:46 65.7 °F 64.6 °F 29.4 in East 24.4 mph 38.7 mph 96% 0.21 in 0 W/m2
18:51 65.8 °F 64.9 °F 29.4 in ESE 18.3 mph 40.3 mph 97% 0.25 in 0 W/m2
18:56 65.8 °F 64.9 °F 29.4 in ESE 19 mph 40.3 mph 97% 0.25 in 0 W/m2
19:01 65.8 °F 64.9 °F 29.4 in ESE 13.6 mph 34.2 mph 97% 0.25 in 0 W/m2
19:06 66 °F 65.1 °F 29.4 in East 9.2 mph 28.9 mph 97% 0.25 in 0 W/m2
19:11 66.7 °F 65.3 °F 29.4 in East 15.2 mph 33.6 mph 95% 0.22 in 0 W/m2
19:16 67.3 °F 65.1 °F 29.4 in East 14.5 mph 33.6 mph 93% 0.2 in 0 W/m2
19:21 67.8 °F 65.1 °F 29.4 in East 16.8 mph 26.6 mph 91% 0.18 in 0 W/m2
19:26 68 °F 64.8 °F 29.3 in East 17.4 mph 26.6 mph 89% 0.17 in 0 W/m2
19:31 68.5 °F 64.6 °F 29.3 in East 14.5 mph 32.7 mph 87% 0.13 in 0 W/m2
19:36 69.1 °F 64.4 °F 29.3 in East 15.2 mph 32.7 mph 85% 0.12 in 0 W/m2
19:41 69.1 °F 64 °F 29.3 in East 19.7 mph 28.9 mph 84% 0.09 in 0 W/m2
19:46 69.3 °F 63.9 °F 29.3 in East 15.9 mph 28.9 mph 83% 0.05 in 0 W/m2
19:51 69.1 °F 63.7 °F 29.3 in East 15.2 mph 28.2 mph 83% 0.04 in 0 W/m2
19:56 68.9 °F 63.7 °F 29.3 in East 15.2 mph 25.1 mph 83% 0.02 in 0 W/m2
20:01 69.1 °F 63.7 °F 29.3 in East 14.5 mph 28.2 mph 83% 0.02 in 0 W/m2
20:06 69.1 °F 63.7 °F 29.3 in East 11.4 mph 28.2 mph 83% 0.01 in 0 W/m2
20:10 68.7 °F 63.3 °F 29.3 in East 11.4 mph 24.4 mph 83% 0.01 in 0 W/m2
20:15 68.9 °F 63.7 °F 29.3 in East 12.1 mph 22.8 mph 83% 0.01 in 0 W/m2
20:20 69.3 °F 63 °F 29.3 in ENE 15.2 mph 24.4 mph 80% 0.01 in 0 W/m2
20:25 69.3 °F 62.4 °F 29.3 in ENE 13.6 mph 25.1 mph 79% 0.01 in 0 W/m2
20:30 69.8 °F 61.5 °F 29.3 in ENE 12.1 mph 36.5 mph 75% 0 in 0 W/m2
20:48 69.3 °F 60.6 °F 29.3 in ENE 11.4 mph 31.1 mph 74% 0 in 0 W/m2
20:53 69.3 °F 60.6 °F 29.3 in ENE 12.1 mph 27.3 mph 74% 0 in 0 W/m2
20:58 69.1 °F 60.4 °F 29.3 in ENE 15.2 mph 26.6 mph 74% 0 in 0 W/m2
21:03 68.9 °F 60.3 °F 29.3 in NE 11.4 mph 26.6 mph 74% 0 in 0 W/m2
21:06 68.9 °F 60.3 °F 29.3 in NE 13 mph 22.1 mph 74% 0 in 0 W/m2
21:11 69.4 °F 60.1 °F 29.3 in ENE 8.3 mph 33.6 mph 72% 0 in 0 W/m2
21:16 69.4 °F 59.7 °F 29.3 in ENE 11.4 mph 33.6 mph 71% 0 in 0 W/m2
21:21 69.4 °F 59.4 °F 29.3 in NE 17.4 mph 25.1 mph 70% 0 in 0 W/m2
21:26 69.8 °F 57.9 °F 29.3 in NNE 13.6 mph 32.7 mph 66% 0 in 0 W/m2
21:31 69.8 °F 57.9 °F 29.3 in NNE 11.4 mph 32.7 mph 66% 0 in 0 W/m2
21:36 69.8 °F 57.6 °F 29.3 in NE 21.3 mph 36.5 mph 65% 0 in 0 W/m2
21:41 69.8 °F 57.9 °F 29.3 in NE 16.8 mph 37.4 mph 66% 0 in 0 W/m2
21:46 69.4 °F 57.9 °F 29.3 in NNE 18.3 mph 37.4 mph 67% 0 in 0 W/m2
21:51 69.3 °F 58.3 °F 29.3 in NE 11.4 mph 32 mph 68% 0 in 0 W/m2
21:56 69.3 °F 58.3 °F 29.3 in NE 13 mph 34.9 mph 68% 0 in 0 W/m2
22:01 69.3 °F 58.3 °F 29.3 in NE 13 mph 34.9 mph 68% 0 in 0 W/m2
22:17 69.3 °F 58.3 °F 29.3 in NNE 14.5 mph 35.8 mph 68% 0 in 0 W/m2
22:22 69.3 °F 58.6 °F 29.3 in NNE 22.8 mph 35.8 mph 69% 0 in 0 W/m2
22:27 69.3 °F 58.3 °F 29.3 in NNE 20.6 mph 35.8 mph 68% 0 in 0 W/m2
22:37 69.1 °F 58.1 °F 29.4 in North 15.9 mph 35.8 mph 68% 0 in 0 W/m2
22:42 69.1 °F 58.1 °F 29.4 in NNE 23.5 mph 35.8 mph 68% 0 in 0 W/m2
22:47 69.1 °F 57.7 °F 29.4 in NNE 15.2 mph 35.8 mph 67% 0 in 0 W/m2
22:52 68.9 °F 57.6 °F 29.4 in NNE 17.4 mph 32 mph 67% 0 in 0 W/m2
22:57 68.9 °F 57 °F 29.4 in North 11.4 mph 34.9 mph 66% 0 in 0 W/m2
23:02 68.7 °F 56.8 °F 29.4 in North 15.2 mph 34.9 mph 66% 0 in 0 W/m2
23:07 68.5 °F 56.8 °F 29.4 in North 18.3 mph 27.3 mph 66% 0 in 0 W/m2
23:12 68.5 °F 56.8 °F 29.4 in North 11.4 mph 27.3 mph 66% 0 in 0 W/m2
23:22 68.2 °F 56.8 °F 29.4 in NNW 12.1 mph 27.3 mph 67% 0 in 0 W/m2
23:27 68 °F 56.7 °F 29.4 in North 12.1 mph 24.4 mph 67% 0 in 0 W/m2
23:32 68.2 °F 56.8 °F 29.4 in NNE 8.3 mph 24.4 mph 67% 0 in 0 W/m2
23:37 68 °F 56.7 °F 29.4 in NNE 17.4 mph 25.1 mph 67% 0 in 0 W/m2
23:42 68 °F 56.1 °F 29.4 in North 11.4 mph 30.4 mph 66% 0 in 0 W/m2
23:57 68.2 °F 55.9 °F 29.5 in NNW 9.2 mph 28.2 mph 65% 0 in 0 W/m2
Northern Hawkes Bay. New Zealand Historic Data
Compliments of Weather Underground - 2 mb